Time;durP1;ratioP1;P1;durP2;ratioP2;P2;SDS_P1;SDS_P2;PMS_P1;PMS_P2;Temp;Humidity;BMP_temperature;BMP_pressure;BME280_temperature;BME280_humidity;BME280_pressure;Samples;Min_cycle;Max_cycle;Signal;HPM_P1;HPM_P2
2021/03/17 00:00:09;;;;;;;4.73;2.90;;;5.30;99.90;;;;;;4960260;28;20481;-76
2021/03/17 00:02:34;;;;;;;3.60;2.93;;;5.20;99.90;;;;;;4962248;28;20559;-75
2021/03/17 00:05:00;;;;;;;3.40;3.10;;;5.20;99.90;;;;;;4958444;28;20453;-78
2021/03/17 00:07:26;;;;;;;2.83;2.53;;;5.10;99.90;;;;;;4964422;28;20182;-75
2021/03/17 00:09:52;;;;;;;3.23;2.60;;;5.10;99.90;;;;;;4961727;28;20207;-76
2021/03/17 00:12:17;;;;;;;3.33;2.67;;;5.10;99.90;;;;;;4961904;28;20516;-76
2021/03/17 00:14:43;;;;;;;3.93;2.90;;;5.00;99.90;;;;;;4960793;28;20266;-76
2021/03/17 00:17:08;;;;;;;5.07;3.53;;;5.00;99.90;;;;;;4958032;28;20222;-77
2021/03/17 00:19:34;;;;;;;4.03;3.60;;;5.00;99.90;;;;;;4959550;28;21104;-80
2021/03/17 00:22:00;;;;;;;3.80;3.37;;;5.00;99.90;;;;;;4960455;28;20229;-77
2021/03/17 00:24:26;;;;;;;5.10;3.47;;;4.80;99.90;;;;;;4961965;28;20228;-76
2021/03/17 00:26:51;;;;;;;4.40;3.93;;;4.70;99.90;;;;;;4962114;28;20461;-78
2021/03/17 00:29:17;;;;;;;5.20;3.43;;;4.70;99.90;;;;;;4961456;28;21574;-78
2021/03/17 00:31:43;;;;;;;4.60;3.60;;;4.70;99.90;;;;;;4957432;28;20206;-76
2021/03/17 00:34:08;;;;;;;5.20;3.50;;;4.80;99.90;;;;;;4960425;28;20211;-76
2021/03/17 00:36:34;;;;;;;4.17;3.70;;;4.70;99.90;;;;;;4962267;28;20194;-79
2021/03/17 00:38:59;;;;;;;4.20;3.80;;;4.70;99.90;;;;;;4960109;28;20222;-75
2021/03/17 00:41:25;;;;;;;3.73;3.30;;;4.70;99.90;;;;;;4960551;28;20250;-77
2021/03/17 00:43:50;;;;;;;3.93;3.53;;;4.80;99.90;;;;;;4960915;28;20198;-77
2021/03/17 00:46:16;;;;;;;4.03;3.63;;;4.70;99.90;;;;;;4959855;28;20285;-79
2021/03/17 00:48:42;;;;;;;5.23;3.60;;;4.60;99.90;;;;;;4960531;28;20213;-75
2021/03/17 00:51:07;;;;;;;4.20;3.47;;;4.60;99.90;;;;;;4960425;28;20190;-75
2021/03/17 00:53:33;;;;;;;5.73;3.57;;;4.50;99.90;;;;;;4960710;28;20206;-77
2021/03/17 00:55:58;;;;;;;3.33;3.03;;;4.50;99.90;;;;;;4962944;28;20239;-76
2021/03/17 00:58:26;;;;;;;3.40;3.10;;;4.50;99.90;;;;;;4962354;28;20198;-75
2021/03/17 01:00:51;;;;;;;4.13;3.70;;;4.60;99.90;;;;;;4961562;28;20210;-77
2021/03/17 01:03:17;;;;;;;3.60;2.77;;;4.60;99.90;;;;;;4962342;28;20508;-76
2021/03/17 01:05:43;;;;;;;3.93;2.93;;;4.60;99.90;;;;;;4961985;28;20201;-74
2021/03/17 01:08:08;;;;;;;3.40;3.10;;;4.60;99.90;;;;;;4962281;28;20202;-76
2021/03/17 01:10:36;;;;;;;3.37;3.07;;;4.60;99.90;;;;;;4957216;28;20199;-78
2021/03/17 01:13:02;;;;;;;3.73;2.80;;;4.60;99.90;;;;;;4962433;28;20265;-78
2021/03/17 01:15:28;;;;;;;3.20;2.90;;;4.60;99.90;;;;;;4963684;28;20529;-77
2021/03/17 01:17:54;;;;;;;3.37;3.07;;;4.60;99.90;;;;;;4958717;28;20442;-76
2021/03/17 01:20:23;;;;;;;3.50;3.17;;;4.70;99.90;;;;;;4963600;28;20529;-76
2021/03/17 01:22:49;;;;;;;4.13;3.73;;;4.50;99.90;;;;;;4961228;28;20202;-77
2021/03/17 01:25:20;;;;;;;3.43;3.13;;;4.50;99.90;;;;;;4962035;28;20493;-77
2021/03/17 01:27:45;;;;;;;3.70;3.37;;;4.60;99.90;;;;;;4963725;28;20804;-77
2021/03/17 01:30:12;;;;;;;4.30;3.27;;;4.60;99.90;;;;;;4964217;28;20469;-76
2021/03/17 01:32:37;;;;;;;4.27;3.77;;;4.70;99.90;;;;;;4961185;28;20211;-76
2021/03/17 01:35:09;;;;;;;5.23;3.67;;;4.60;99.90;;;;;;4961285;28;20438;-76
2021/03/17 01:37:35;;;;;;;4.10;3.40;;;4.60;99.90;;;;;;4965434;28;20217;-75
2021/03/17 01:40:01;;;;;;;3.60;3.30;;;4.50;99.90;;;;;;4960239;28;20521;-76
2021/03/17 01:42:27;;;;;;;4.23;3.83;;;4.50;99.90;;;;;;4964385;28;20194;-77
2021/03/17 01:44:52;;;;;;;4.80;3.37;;;4.50;99.90;;;;;;4964275;28;20473;-75
2021/03/17 01:47:18;;;;;;;4.57;3.60;;;4.40;99.90;;;;;;4966619;28;20203;-76
2021/03/17 01:49:43;;;;;;;4.00;3.47;;;4.50;99.90;;;;;;4962632;28;20230;-77
2021/03/17 01:52:10;;;;;;;5.13;3.97;;;4.50;99.90;;;;;;4964604;28;20201;-76
2021/03/17 01:54:36;;;;;;;4.30;3.77;;;4.50;99.90;;;;;;4962229;28;20217;-76
2021/03/17 01:57:02;;;;;;;4.07;3.67;;;4.50;99.90;;;;;;4964092;28;20456;-77
2021/03/17 01:59:28;;;;;;;4.30;3.80;;;4.50;99.90;;;;;;4958892;28;20677;-76
2021/03/17 02:01:55;;;;;;;3.97;3.40;;;4.50;99.90;;;;;;4962879;28;20422;-77
2021/03/17 02:04:20;;;;;;;4.30;3.90;;;4.50;99.90;;;;;;4963165;28;20432;-77
2021/03/17 02:06:46;;;;;;;7.10;3.93;;;4.60;99.90;;;;;;4962489;28;20437;-77
2021/03/17 02:09:11;;;;;;;5.10;3.83;;;4.50;99.90;;;;;;4967361;28;20331;-76
2021/03/17 02:11:48;;;;;;;3.90;3.50;;;4.50;99.90;;;;;;4968567;28;20183;-77
2021/03/17 02:14:56;;;;;;;5.57;3.77;;;4.50;99.90;;;;;;4969480;28;20182;-77
2021/03/17 02:17:25;;;;;;;3.43;3.10;;;4.50;99.90;;;;;;4967390;28;20445;-77
2021/03/17 02:20:36;;;;;;;3.73;3.27;;;4.50;99.90;;;;;;4964337;28;20553;-76
2021/03/17 02:23:20;;;;;;;4.63;3.70;;;4.60;99.90;;;;;;4964982;28;20446;-76
2021/03/17 02:26:16;;;;;;;4.17;3.57;;;4.60;99.90;;;;;;4961686;28;21122;-77
2021/03/17 02:29:18;;;;;;;4.37;3.93;;;4.50;99.90;;;;;;4963289;28;20552;-78
2021/03/17 02:32:03;;;;;;;4.60;3.80;;;4.50;99.90;;;;;;4961259;28;20449;-76
2021/03/17 02:34:37;;;;;;;4.73;3.60;;;4.50;99.90;;;;;;4961162;28;20423;-75
2021/03/17 02:37:08;;;;;;;4.70;4.03;;;4.50;99.90;;;;;;4960124;28;20422;-78
2021/03/17 02:40:02;;;;;;;3.83;3.40;;;4.50;99.90;;;;;;4961857;28;20520;-76
2021/03/17 02:42:48;;;;;;;3.40;3.10;;;4.50;99.90;;;;;;4960309;28;20441;-77
2021/03/17 02:45:26;;;;;;;4.70;4.13;;;4.50;99.90;;;;;;4960173;28;20449;-78
2021/03/17 02:48:02;;;;;;;5.07;4.03;;;4.50;99.90;;;;;;4960827;28;20443;-75
2021/03/17 02:50:30;;;;;;;4.47;4.07;;;4.50;99.90;;;;;;4962250;28;20940;-78
2021/03/17 02:52:58;;;;;;;4.90;4.40;;;4.50;99.90;;;;;;4958241;28;20820;-77
2021/03/17 02:55:28;;;;;;;4.97;4.10;;;4.50;99.90;;;;;;4963051;28;20870;-78
2021/03/17 02:57:56;;;;;;;6.00;4.17;;;4.50;99.90;;;;;;4964984;28;20957;-76
2021/03/17 03:00:23;;;;;;;3.93;3.40;;;4.40;99.90;;;;;;4961856;28;20572;-77
2021/03/17 03:02:51;;;;;;;4.10;3.50;;;4.50;99.90;;;;;;4960273;28;20474;-79
2021/03/17 03:05:17;;;;;;;4.67;4.23;;;4.50;99.90;;;;;;4962176;28;20430;-77
2021/03/17 03:07:47;;;;;;;5.00;4.10;;;4.40;99.90;;;;;;4960196;28;20438;-76
2021/03/17 03:10:14;;;;;;;4.43;4.03;;;4.60;99.90;;;;;;4959904;28;20513;-76
2021/03/17 03:12:41;;;;;;;6.70;4.57;;;4.50;99.90;;;;;;4961926;28;20449;-75
2021/03/17 03:15:09;;;;;;;7.23;3.57;;;4.50;99.90;;;;;;4965747;28;20855;-77
2021/03/17 03:17:36;;;;;;;4.27;3.57;;;4.70;99.90;;;;;;4958866;28;20474;-76
2021/03/17 03:20:06;;;;;;;3.77;3.40;;;4.60;99.90;;;;;;4961713;28;20481;-78
2021/03/17 03:22:32;;;;;;;4.63;3.30;;;4.50;99.90;;;;;;4961858;28;20509;-76
2021/03/17 03:24:59;;;;;;;4.23;3.83;;;4.50;99.90;;;;;;4959123;28;20446;-77
2021/03/17 03:27:25;;;;;;;4.20;3.60;;;4.40;99.90;;;;;;4962438;28;20468;-76
2021/03/17 03:29:51;;;;;;;5.40;4.37;;;4.40;99.90;;;;;;4965522;28;21018;-75
2021/03/17 03:32:17;;;;;;;3.90;3.60;;;4.40;99.90;;;;;;4963489;28;20518;-75
2021/03/17 03:34:43;;;;;;;6.50;3.80;;;4.50;99.90;;;;;;4963791;28;20520;-78
2021/03/17 03:37:08;;;;;;;5.30;3.87;;;4.50;99.90;;;;;;4959443;28;20187;-77
2021/03/17 03:39:34;;;;;;;6.27;3.57;;;4.50;99.90;;;;;;4963712;28;20230;-79
2021/03/17 03:42:00;;;;;;;4.27;3.87;;;4.50;99.90;;;;;;4959949;28;20191;-76
2021/03/17 03:44:26;;;;;;;4.33;3.93;;;4.60;99.90;;;;;;4959794;28;20446;-76
2021/03/17 03:46:52;;;;;;;4.90;4.43;;;4.50;99.90;;;;;;4963568;28;20183;-76
2021/03/17 03:49:18;;;;;;;5.87;4.20;;;4.60;99.90;;;;;;4959156;28;20508;-77
2021/03/17 03:51:50;;;;;;;4.40;3.97;;;4.60;99.90;;;;;;4963561;28;20261;-78
2021/03/17 03:54:27;;;;;;;4.70;4.13;;;4.50;99.90;;;;;;4962440;28;20288;-77
2021/03/17 03:57:06;;;;;;;4.27;3.80;;;4.40;99.90;;;;;;4961513;28;21040;-78
2021/03/17 03:59:48;;;;;;;5.03;3.60;;;4.50;99.90;;;;;;4961021;28;21002;-76
2021/03/17 04:02:26;;;;;;;4.30;3.90;;;4.50;99.90;;;;;;4959617;28;20434;-76
2021/03/17 04:04:55;;;;;;;5.50;3.80;;;4.50;99.90;;;;;;4962596;28;20477;-76
2021/03/17 04:07:22;;;;;;;6.13;4.40;;;4.60;99.90;;;;;;4958136;28;20813;-77
2021/03/17 04:09:50;;;;;;;5.70;4.50;;;4.80;99.90;;;;;;4960441;28;20446;-78
2021/03/17 04:12:20;;;;;;;6.53;5.07;;;4.80;99.90;;;;;;4959576;28;20521;-77
2021/03/17 04:14:49;;;;;;;6.13;4.30;;;4.80;99.90;;;;;;4964573;28;20453;-77
2021/03/17 04:17:30;;;;;;;7.90;5.00;;;5.00;99.90;;;;;;4959162;28;21123;-76
2021/03/17 04:20:00;;;;;;;5.57;5.07;;;5.10;99.90;;;;;;4960874;28;20469;-77
2021/03/17 04:22:31;;;;;;;4.93;4.40;;;5.00;99.90;;;;;;4961881;28;20446;-77
2021/03/17 04:24:59;;;;;;;5.13;4.50;;;5.00;99.90;;;;;;4960018;28;20520;-77
2021/03/17 04:27:27;;;;;;;4.83;4.20;;;4.90;99.90;;;;;;4962629;28;20430;-78
2021/03/17 04:29:54;;;;;;;5.33;4.20;;;4.80;99.90;;;;;;4961218;28;20442;-79
2021/03/17 04:32:22;;;;;;;4.60;4.03;;;4.80;99.90;;;;;;4964629;28;20877;-75
2021/03/17 04:34:49;;;;;;;4.80;3.93;;;4.90;99.90;;;;;;4964157;28;20453;-76
2021/03/17 04:37:16;;;;;;;6.13;4.10;;;4.90;99.90;;;;;;4962977;28;20437;-79
2021/03/17 04:39:43;;;;;;;5.20;4.60;;;5.00;99.90;;;;;;4966721;28;20500;-77
2021/03/17 04:42:09;;;;;;;5.47;4.70;;;5.00;99.90;;;;;;4966248;28;20802;-75
2021/03/17 04:44:37;;;;;;;6.00;5.10;;;5.10;99.90;;;;;;4949569;28;20446;-77
2021/03/17 04:47:10;;;;;;;4.57;4.10;;;5.10;99.90;;;;;;4965941;28;20439;-75
2021/03/17 04:49:36;;;;;;;5.57;4.30;;;5.10;99.90;;;;;;4966897;28;20469;-76
2021/03/17 04:52:03;;;;;;;5.87;4.83;;;5.00;99.90;;;;;;4963689;28;20496;-78
2021/03/17 04:54:29;;;;;;;6.27;4.53;;;5.00;99.90;;;;;;4959181;28;20422;-76
2021/03/17 04:56:56;;;;;;;6.70;4.37;;;5.00;99.90;;;;;;4960810;28;20445;-77
2021/03/17 04:59:22;;;;;;;5.03;4.40;;;5.10;99.90;;;;;;4959709;28;20214;-79
2021/03/17 05:01:48;;;;;;;4.80;4.33;;;5.10;99.90;;;;;;4959354;28;20472;-75
2021/03/17 05:04:15;;;;;;;6.10;5.10;;;4.90;99.90;;;;;;4957149;28;20434;-77
2021/03/17 05:06:44;;;;;;;5.63;4.60;;;4.90;99.90;;;;;;4961413;28;20481;-75
2021/03/17 05:09:11;;;;;;;5.90;5.30;;;4.90;99.90;;;;;;4959875;28;21032;-76
2021/03/17 05:11:39;;;;;;;6.70;4.90;;;4.80;99.90;;;;;;4956785;28;20437;-76
2021/03/17 05:14:06;;;;;;;5.10;4.60;;;4.80;99.90;;;;;;4959592;28;20438;-76
2021/03/17 05:16:34;;;;;;;6.70;4.40;;;4.80;99.90;;;;;;4958517;28;20530;-77
2021/03/17 05:19:02;;;;;;;6.37;5.10;;;4.90;99.90;;;;;;4961091;28;20494;-79
2021/03/17 05:21:28;;;;;;;5.70;5.13;;;4.90;99.90;;;;;;4964123;28;20474;-77
2021/03/17 05:23:57;;;;;;;5.50;5.00;;;4.90;99.90;;;;;;4962221;28;21053;-76
2021/03/17 05:26:24;;;;;;;7.50;5.37;;;4.80;99.90;;;;;;4962367;28;20449;-77
2021/03/17 05:28:51;;;;;;;8.17;5.40;;;4.90;99.90;;;;;;4963180;28;20454;-76
2021/03/17 05:31:18;;;;;;;5.70;4.90;;;4.90;99.90;;;;;;4965787;28;20514;-78
2021/03/17 05:33:45;;;;;;;8.10;6.10;;;4.90;99.90;;;;;;4963041;28;20438;-76
2021/03/17 05:36:11;;;;;;;6.57;5.10;;;4.90;99.90;;;;;;4961505;28;20757;-75
2021/03/17 05:38:37;;;;;;;6.40;5.20;;;5.00;99.90;;;;;;4964036;28;20479;-77
2021/03/17 05:41:03;;;;;;;6.90;5.50;;;5.10;99.90;;;;;;4965791;28;20472;-77
2021/03/17 05:43:29;;;;;;;8.07;6.33;;;5.10;99.90;;;;;;4962562;28;20433;-77
2021/03/17 05:45:55;;;;;;;7.67;6.23;;;5.00;99.90;;;;;;4960769;28;20422;-76
2021/03/17 05:48:23;;;;;;;7.20;6.40;;;5.00;99.90;;;;;;4961632;28;20429;-79
2021/03/17 05:50:49;;;;;;;11.57;7.27;;;4.90;99.90;;;;;;4962408;28;20464;-75
2021/03/17 05:53:15;;;;;;;9.07;6.40;;;5.00;99.90;;;;;;4960287;28;20435;-76
2021/03/17 05:55:42;;;;;;;8.23;6.10;;;5.00;99.90;;;;;;4962882;28;20198;-75
2021/03/17 05:58:07;;;;;;;6.90;6.20;;;5.00;99.90;;;;;;4965101;28;20443;-75
2021/03/17 06:00:33;;;;;;;8.60;6.43;;;5.00;99.90;;;;;;4964313;28;20479;-79
2021/03/17 06:02:59;;;;;;;9.63;6.77;;;5.10;99.90;;;;;;4962797;28;20685;-75
2021/03/17 06:05:25;;;;;;;7.90;6.37;;;5.10;99.90;;;;;;4963148;28;20225;-79
2021/03/17 06:07:51;;;;;;;8.30;6.87;;;5.10;99.90;;;;;;4962680;28;20442;-76
2021/03/17 06:10:17;;;;;;;8.40;6.50;;;5.10;99.90;;;;;;4960055;28;20549;-76
2021/03/17 06:12:47;;;;;;;9.60;7.17;;;5.00;99.90;;;;;;4963997;28;20934;-75
2021/03/17 06:15:19;;;;;;;8.47;6.77;;;4.90;99.90;;;;;;4963269;28;20434;-78
2021/03/17 06:17:48;;;;;;;8.23;6.13;;;5.00;99.90;;;;;;4960415;28;20481;-76
2021/03/17 06:20:15;;;;;;;9.33;7.23;;;5.10;99.90;;;;;;4963819;28;20470;-76
2021/03/17 06:22:41;;;;;;;10.33;7.67;;;5.20;99.90;;;;;;4964268;28;21042;-77
2021/03/17 06:25:08;;;;;;;9.23;6.90;;;5.30;99.90;;;;;;4960240;28;20446;-77
2021/03/17 06:27:35;;;;;;;10.40;8.57;;;5.40;99.90;;;;;;4964102;28;20497;-78
2021/03/17 06:30:04;;;;;;;12.40;8.30;;;5.40;99.90;;;;;;4961015;28;20845;-77
2021/03/17 06:32:32;;;;;;;13.00;8.80;;;5.40;99.90;;;;;;4962545;28;20780;-76
2021/03/17 06:34:58;;;;;;;13.17;9.00;;;5.50;99.90;;;;;;4960123;28;20478;-77
2021/03/17 06:37:38;;;;;;;14.07;8.70;;;5.50;99.90;;;;;;4965695;28;20465;-77
2021/03/17 06:40:23;;;;;;;17.93;11.20;;;5.60;99.90;;;;;;4965003;28;20468;-79
2021/03/17 06:42:49;;;;;;;11.77;8.47;;;5.60;99.90;;;;;;4962892;28;20825;-77
2021/03/17 06:45:27;;;;;;;12.97;9.13;;;5.70;99.90;;;;;;4963048;28;20441;-76
2021/03/17 06:47:52;;;;;;;14.93;8.40;;;5.70;99.90;;;;;;4963938;28;20418;-77
2021/03/17 06:50:26;;;;;;;12.20;8.93;;;5.80;99.90;;;;;;4963673;28;20462;-79
2021/03/17 06:52:52;;;;;;;15.73;8.20;;;5.80;99.90;;;;;;4964008;28;20202;-77
2021/03/17 06:55:20;;;;;;;9.67;7.90;;;5.90;99.90;;;;;;4963772;28;21157;-79
2021/03/17 06:57:50;;;;;;;11.47;8.53;;;6.00;99.90;;;;;;4967135;28;20215;-76
2021/03/17 07:00:16;;;;;;;19.40;8.27;;;5.90;99.90;;;;;;4956917;28;20469;-79
2021/03/17 07:03:05;;;;;;;12.53;8.27;;;5.90;99.90;;;;;;4964753;28;20512;-77
2021/03/17 07:05:36;;;;;;;19.53;8.10;;;5.90;99.90;;;;;;4964541;28;20472;-77
2021/03/17 07:08:07;;;;;;;11.03;7.23;;;6.00;99.90;;;;;;4964880;28;20427;-78
2021/03/17 07:10:36;;;;;;;12.17;8.53;;;6.10;99.90;;;;;;4963204;28;20468;-83
2021/03/17 07:13:04;;;;;;;11.83;7.33;;;6.10;99.90;;;;;;4968378;28;20516;-76
2021/03/17 07:15:30;;;;;;;14.13;8.87;;;6.20;99.90;;;;;;4966926;28;20521;-77
2021/03/17 07:18:21;;;;;;;13.07;8.53;;;6.20;99.90;;;;;;4971243;28;20465;-74
2021/03/17 07:21:05;;;;;;;10.47;7.63;;;6.30;99.90;;;;;;4964911;28;20808;-78
2021/03/17 07:23:39;;;;;;;13.13;8.17;;;6.30;99.90;;;;;;4960779;28;20929;-77
2021/03/17 07:26:22;;;;;;;14.53;8.53;;;6.30;99.90;;;;;;4965664;28;20461;-77
2021/03/17 07:28:47;;;;;;;11.20;7.70;;;6.40;99.90;;;;;;4961294;28;20477;-79
2021/03/17 07:31:14;;;;;;;12.60;8.57;;;6.40;99.90;;;;;;4962880;28;20434;-78
2021/03/17 07:33:40;;;;;;;13.70;8.93;;;6.40;99.90;;;;;;4960310;28;20716;-81
2021/03/17 07:36:06;;;;;;;12.53;8.40;;;6.30;99.90;;;;;;4960044;28;20500;-79
2021/03/17 07:38:33;;;;;;;12.93;8.27;;;6.20;99.90;;;;;;4959295;28;20233;-78
2021/03/17 07:40:58;;;;;;;21.90;12.97;;;6.10;99.90;;;;;;4959334;28;20884;-78
2021/03/17 07:43:26;;;;;;;17.43;10.90;;;6.10;99.90;;;;;;4959323;28;20437;-78
2021/03/17 07:45:52;;;;;;;14.17;9.73;;;6.20;99.90;;;;;;4956340;28;20426;-78
2021/03/17 07:48:20;;;;;;;17.50;10.97;;;6.30;99.90;;;;;;4959738;28;20437;-79
2021/03/17 07:50:46;;;;;;;19.50;10.43;;;6.20;99.90;;;;;;4957614;28;20453;-78
2021/03/17 07:53:24;;;;;;;20.50;10.87;;;6.30;99.90;;;;;;4958608;28;20430;-79
2021/03/17 07:55:55;;;;;;;17.27;10.50;;;6.40;99.90;;;;;;4958884;28;20522;-77
2021/03/17 07:58:21;;;;;;;16.83;10.63;;;6.60;99.90;;;;;;4961253;28;20445;-78
2021/03/17 08:00:47;;;;;;;16.67;10.83;;;6.80;99.90;;;;;;4961651;28;21054;-77
2021/03/17 08:03:14;;;;;;;16.87;11.13;;;6.90;99.90;;;;;;4958242;28;20433;-76
2021/03/17 08:05:40;;;;;;;19.57;11.93;;;7.00;99.90;;;;;;4959481;28;20426;-77
2021/03/17 08:08:06;;;;;;;17.17;10.77;;;7.10;99.90;;;;;;4957685;28;20460;-79
2021/03/17 08:10:35;;;;;;;15.13;9.80;;;7.20;99.90;;;;;;4963073;28;20214;-77
2021/03/17 08:13:01;;;;;;;16.17;10.87;;;7.30;99.90;;;;;;4960909;28;21165;-77
2021/03/17 08:15:27;;;;;;;19.20;11.30;;;7.40;99.90;;;;;;4958572;28;20924;-77
2021/03/17 08:17:52;;;;;;;19.13;11.50;;;7.40;99.90;;;;;;4958628;28;20489;-76
2021/03/17 08:20:29;;;;;;;21.87;12.40;;;7.40;99.90;;;;;;4963118;28;20588;-77
2021/03/17 08:22:57;;;;;;;18.97;11.67;;;7.60;99.90;;;;;;4959460;28;20201;-77
2021/03/17 08:25:44;;;;;;;18.43;11.83;;;7.80;99.90;;;;;;4958419;28;20540;-76
2021/03/17 08:28:20;;;;;;;19.20;12.17;;;8.00;99.90;;;;;;4959152;28;20442;-76
2021/03/17 08:30:46;;;;;;;20.53;12.47;;;8.20;99.90;;;;;;4955378;28;20436;-76
2021/03/17 08:33:29;;;;;;;18.00;11.20;;;8.10;99.90;;;;;;4956504;28;20869;-76
2021/03/17 08:36:06;;;;;;;18.57;11.23;;;8.40;99.90;;;;;;4958665;28;20441;-77
2021/03/17 08:38:55;;;;;;;19.53;11.20;;;8.70;99.90;;;;;;4955780;28;20449;-78
2021/03/17 08:41:47;;;;;;;19.43;12.73;;;8.90;99.90;;;;;;4965462;28;20572;-78
2021/03/17 08:44:42;;;;;;;21.40;11.50;;;9.00;99.90;;;;;;4956533;28;20446;-78
2021/03/17 08:47:31;;;;;;;18.20;12.47;;;8.90;99.90;;;;;;4957563;28;20428;-77
2021/03/17 08:50:18;;;;;;;15.83;11.00;;;8.80;99.90;;;;;;4959972;28;21002;-77
2021/03/17 08:52:52;;;;;;;19.40;10.60;;;8.20;99.90;;;;;;4958561;28;20461;-77
2021/03/17 08:55:33;;;;;;;24.13;13.37;;;8.10;99.90;;;;;;4958232;28;20447;-77
2021/03/17 08:58:06;;;;;;;16.77;11.70;;;8.40;99.90;;;;;;4963812;28;20857;-79
2021/03/17 09:01:03;;;;;;;19.33;12.00;;;8.70;99.90;;;;;;4961260;28;20495;-76
2021/03/17 09:03:32;;;;;;;16.87;11.43;;;9.00;99.90;;;;;;4954998;28;20916;-76
2021/03/17 09:06:27;;;;;;;16.57;10.93;;;9.40;99.90;;;;;;4961898;28;20425;-77
2021/03/17 09:09:03;;;;;;;16.43;10.73;;;9.50;99.90;;;;;;4953496;28;20486;-76
2021/03/17 09:11:31;;;;;;;20.77;12.30;;;9.60;99.90;;;;;;4957520;28;20985;-78
2021/03/17 09:14:05;;;;;;;21.10;10.83;;;9.70;99.90;;;;;;4960464;28;20461;-78
2021/03/17 09:16:36;;;;;;;18.77;11.60;;;9.70;99.90;;;;;;4963002;28;20826;-77
2021/03/17 09:19:04;;;;;;;16.67;11.50;;;9.60;99.90;;;;;;4960043;28;20473;-79
2021/03/17 09:21:31;;;;;;;17.87;11.70;;;9.30;99.90;;;;;;4960714;28;20671;-78
2021/03/17 09:23:57;;;;;;;18.50;11.80;;;9.00;99.90;;;;;;4957354;28;20442;-79
2021/03/17 09:26:27;;;;;;;19.53;11.70;;;8.80;99.90;;;;;;4944068;28;20464;-77
2021/03/17 09:28:53;;;;;;;16.50;9.97;;;8.80;99.90;;;;;;4961251;28;20316;-76
2021/03/17 09:31:22;;;;;;;17.67;11.03;;;8.70;99.90;;;;;;4956074;28;20831;-76
2021/03/17 09:33:49;;;;;;;17.40;11.77;;;8.70;99.90;;;;;;4943270;28;20794;-79
2021/03/17 09:36:20;;;;;;;17.20;11.80;;;8.60;99.90;;;;;;4959800;28;20442;-78
2021/03/17 09:38:55;;;;;;;18.37;10.30;;;8.20;99.90;;;;;;4962165;28;20994;-81
2021/03/17 09:41:23;;;;;;;19.60;12.37;;;8.10;99.90;;;;;;4960137;28;20886;-78
2021/03/17 09:44:05;;;;;;;16.67;10.77;;;8.00;99.90;;;;;;4958593;28;20784;-79
2021/03/17 09:46:44;;;;;;;16.43;10.50;;;8.00;99.90;;;;;;4964290;28;20446;-79
2021/03/17 09:49:16;;;;;;;19.53;12.40;;;8.30;99.90;;;;;;4959573;28;20468;-77
2021/03/17 09:51:48;;;;;;;19.53;11.60;;;8.30;99.90;;;;;;4959955;28;20449;-75
2021/03/17 09:54:17;;;;;;;20.50;12.27;;;8.40;99.90;;;;;;4958919;28;20449;-79
2021/03/17 09:56:48;;;;;;;18.60;11.47;;;8.10;99.90;;;;;;4960144;28;20434;-79
2021/03/17 09:59:22;;;;;;;19.23;10.93;;;7.80;99.90;;;;;;4956621;28;21242;-78
2021/03/17 10:02:00;;;;;;;19.40;13.33;;;7.70;99.90;;;;;;4957643;28;20814;-74
2021/03/17 10:04:42;;;;;;;19.27;12.77;;;7.80;99.90;;;;;;4957020;28;20453;-77
2021/03/17 10:07:28;;;;;;;25.33;11.43;;;7.80;99.90;;;;;;4955212;28;20526;-77
2021/03/17 10:09:55;;;;;;;17.17;9.87;;;7.90;99.90;;;;;;4958573;28;22192;-76
2021/03/17 10:12:26;;;;;;;14.63;9.70;;;7.80;99.90;;;;;;4953358;28;20449;-78
2021/03/17 10:14:56;;;;;;;13.33;10.00;;;7.90;99.90;;;;;;4954977;28;20438;-77
2021/03/17 10:17:27;;;;;;;14.00;10.10;;;8.30;99.90;;;;;;4940171;28;21343;-79
2021/03/17 10:19:58;;;;;;;15.60;10.90;;;8.50;99.90;;;;;;4956257;28;20466;-78
2021/03/17 10:22:26;;;;;;;17.63;9.53;;;8.60;99.90;;;;;;4953928;28;20453;-80
2021/03/17 10:24:54;;;;;;;15.17;8.47;;;8.50;99.90;;;;;;4966953;28;20460;-78
2021/03/17 10:27:24;;;;;;;13.73;9.03;;;8.60;99.90;;;;;;4952196;28;20454;-80
2021/03/17 10:29:52;;;;;;;11.30;8.27;;;8.50;99.90;;;;;;4955222;28;20620;-78
2021/03/17 10:32:21;;;;;;;13.20;8.40;;;8.60;99.90;;;;;;4953945;28;21000;-80
2021/03/17 10:34:47;;;;;;;11.63;7.70;;;8.70;99.90;;;;;;4954016;28;20561;-77
2021/03/17 10:37:15;;;;;;;11.30;7.67;;;8.60;99.90;;;;;;4953342;28;20490;-77
2021/03/17 10:39:41;;;;;;;16.10;7.90;;;8.30;99.90;;;;;;4955890;28;20469;-77
2021/03/17 10:42:22;;;;;;;14.20;7.93;;;8.10;99.90;;;;;;4954589;28;20508;-78
2021/03/17 10:45:07;;;;;;;11.37;8.00;;;8.30;99.90;;;;;;4952257;28;20454;-77
2021/03/17 10:47:33;;;;;;;10.47;7.50;;;8.20;99.90;;;;;;4956421;28;20438;-78
2021/03/17 10:49:59;;;;;;;11.23;8.27;;;8.40;99.90;;;;;;4957856;28;20469;-77
2021/03/17 10:52:39;;;;;;;14.20;9.27;;;8.70;99.90;;;;;;4957019;28;20970;-81
2021/03/17 10:55:23;;;;;;;10.90;7.93;;;8.70;99.90;;;;;;4956601;28;20458;-78
2021/03/17 10:57:49;;;;;;;10.60;7.60;;;8.60;99.90;;;;;;4957850;28;20433;-77
2021/03/17 11:00:22;;;;;;;13.07;7.97;;;8.50;99.90;;;;;;4953908;28;20517;-80
2021/03/17 11:02:48;;;;;;;7.30;6.60;;;8.60;99.90;;;;;;4960409;28;20744;-78
2021/03/17 11:05:22;;;;;;;9.50;7.30;;;8.70;99.90;;;;;;4954330;28;20440;-79
2021/03/17 11:07:51;;;;;;;9.63;6.80;;;8.80;99.90;;;;;;4957404;28;20179;-77
2021/03/17 11:10:34;;;;;;;9.93;6.87;;;8.90;99.90;;;;;;4956244;28;20464;-77
2021/03/17 11:13:21;;;;;;;8.50;6.00;;;8.80;99.90;;;;;;4951901;28;20543;-78
2021/03/17 11:15:47;;;;;;;8.77;6.93;;;8.80;99.90;;;;;;4952287;28;21252;-79
2021/03/17 11:18:20;;;;;;;7.60;5.60;;;8.70;99.90;;;;;;4953812;28;20475;-76
2021/03/17 11:20:46;;;;;;;11.10;6.20;;;8.70;99.90;;;;;;4956142;28;20868;-78
2021/03/17 11:23:24;;;;;;;6.97;5.47;;;8.30;99.90;;;;;;4953277;28;20446;-77
2021/03/17 11:25:51;;;;;;;6.80;6.10;;;8.30;99.90;;;;;;4952076;28;20445;-77
2021/03/17 11:28:19;;;;;;;12.57;6.60;;;8.40;99.90;;;;;;4954408;28;20948;-80
2021/03/17 11:30:50;;;;;;;6.70;5.60;;;8.60;99.90;;;;;;4956645;28;22010;-77
2021/03/17 11:33:16;;;;;;;10.93;5.73;;;8.80;99.90;;;;;;4951919;28;20477;-75
2021/03/17 11:35:45;;;;;;;13.13;7.10;;;8.70;99.90;;;;;;4955307;28;20476;-80
2021/03/17 11:38:11;;;;;;;9.40;6.10;;;8.60;99.90;;;;;;4951097;28;20224;-78
2021/03/17 11:40:37;;;;;;;10.30;6.53;;;8.60;99.90;;;;;;4950744;28;20477;-78
2021/03/17 11:43:15;;;;;;;10.33;6.20;;;8.60;99.90;;;;;;4950464;28;20457;-77
2021/03/17 11:45:41;;;;;;;9.90;5.93;;;8.60;99.90;;;;;;4950542;28;20442;-80
2021/03/17 11:48:08;;;;;;;9.27;6.47;;;8.80;99.90;;;;;;4953419;28;21349;-78
2021/03/17 11:50:36;;;;;;;9.93;6.67;;;8.80;99.90;;;;;;4953927;28;20513;-78
2021/03/17 11:53:04;;;;;;;6.60;5.47;;;8.40;99.90;;;;;;4954470;28;20512;-81
2021/03/17 11:55:30;;;;;;;7.70;5.87;;;8.30;99.90;;;;;;4951286;28;20461;-77
2021/03/17 11:57:57;;;;;;;12.10;6.57;;;8.10;99.90;;;;;;4959689;28;20446;-80
2021/03/17 12:00:24;;;;;;;8.67;5.93;;;8.10;99.90;;;;;;4955294;28;21073;-78
2021/03/17 12:02:49;;;;;;;8.30;5.77;;;7.70;99.90;;;;;;4957838;28;21000;-78
2021/03/17 12:05:17;;;;;;;5.00;4.50;;;7.60;99.90;;;;;;4950914;28;20536;-77
2021/03/17 12:07:42;;;;;;;6.20;4.83;;;7.60;99.90;;;;;;4950732;28;20233;-78
2021/03/17 12:10:09;;;;;;;7.50;4.33;;;7.80;99.90;;;;;;4961744;28;20474;-79
2021/03/17 12:12:36;;;;;;;4.80;4.10;;;7.80;99.90;;;;;;4952927;28;20547;-75
2021/03/17 12:15:05;;;;;;;5.03;3.93;;;7.60;99.90;;;;;;4955482;28;20528;-76
2021/03/17 12:17:31;;;;;;;6.50;5.23;;;7.50;99.90;;;;;;4969266;28;20920;-78
2021/03/17 12:19:57;;;;;;;7.13;4.40;;;7.50;99.90;;;;;;4960908;28;20514;-78
2021/03/17 12:22:23;;;;;;;5.10;4.27;;;7.50;99.90;;;;;;4953845;28;20221;-78
2021/03/17 12:24:49;;;;;;;11.90;9.37;;;7.80;99.90;;;;;;4956508;28;20449;-78
2021/03/17 12:27:14;;;;;;;4.00;3.60;;;7.90;99.90;;;;;;4955027;28;20194;-78
2021/03/17 12:29:40;;;;;;;5.67;4.10;;;8.20;99.90;;;;;;4951716;28;20734;-80
2021/03/17 12:32:05;;;;;;;4.80;3.40;;;8.80;99.90;;;;;;4958477;28;20191;-80
2021/03/17 12:34:32;;;;;;;2.20;2.00;;;9.00;99.90;;;;;;4952476;28;20194;-77
2021/03/17 12:36:58;;;;;;;2.10;1.73;;;8.80;99.90;;;;;;4957495;28;20285;-77
2021/03/17 12:39:24;;;;;;;2.40;2.20;;;9.10;99.90;;;;;;4955528;28;20465;-81
2021/03/17 12:41:50;;;;;;;1.70;1.60;;;11.40;99.90;;;;;;4948986;28;20482;-78
2021/03/17 12:44:16;;;;;;;1.97;1.87;;;14.00;99.90;;;;;;4952465;28;21607;-77
2021/03/17 12:46:42;;;;;;;1.77;1.67;;;16.10;99.90;;;;;;4955904;28;20447;-77
2021/03/17 12:49:07;;;;;;;2.10;2.00;;;17.90;99.90;;;;;;4955622;28;20217;-80
2021/03/17 12:51:33;;;;;;;1.80;1.70;;;19.00;96.70;;;;;;4957321;28;20259;-81
2021/03/17 12:53:58;;;;;;;2.40;2.20;;;19.10;88.40;;;;;;4957883;28;20194;-77
2021/03/17 12:56:24;;;;;;;2.57;2.37;;;19.30;84.50;;;;;;4957923;28;20286;-76
2021/03/17 12:58:50;;;;;;;2.13;2.00;;;19.70;82.60;;;;;;4960464;28;20214;-78
2021/03/17 13:01:15;;;;;;;2.20;2.10;;;18.80;74.70;;;;;;4959958;28;20237;-79
2021/03/17 13:03:43;;;;;;;2.20;2.00;;;19.50;75.20;;;;;;4957887;28;20195;-75